Aida Blu — IBWX — position and weather

sailwx.info

Track history (hours):
 
Tides and Currents Weather Stations Pressure Air Temp Water Temp Dewpoint Dewpoint Depression Visibility Wind Speed Wind Dir Waves Ship Positions

Aida Blu

Last reported at 2018-Jan-20 00:03 UTC. Time now 2018-Jan-20 11:12 UTC.
Position N 28°34' W 016°05'.

Length 252 m; draft 7.3 m.

Type: Passenger vessel. MMSI: 247282500.

Date/timePositionNaut miles runAvg speedWind from/ knotsBaromVisibWave heightAir tempDewpointWater temp
2018-Jan-20 00:03N 28°34' W 016°05'113.7
2018-Jan-20 00:01N 28°34' W 016°05'612.3
2018-Jan-19 23:30N 28°29' W 016°09'5 9.1
2018-Jan-19 23:00N 28°28' W 016°15'0 0.2
2018-Jan-19 22:28N 28°28' W 016°15'0 0.0
2018-Jan-19 21:58N 28°28' W 016°15'0 0.0
2018-Jan-19 21:28N 28°28' W 016°15'0 0.0
2018-Jan-19 20:58N 28°28' W 016°15'0 0.0
2018-Jan-19 20:28N 28°28' W 016°15'0 0.0
2018-Jan-19 19:58N 28°28' W 016°15'0 0.0
2018-Jan-19 19:28N 28°28' W 016°15'0 0.0
2018-Jan-19 18:58N 28°28' W 016°15'0 0.0
2018-Jan-19 18:28N 28°28' W 016°15'0 0.0
2018-Jan-19 17:58N 28°28' W 016°15'0 0.0
2018-Jan-19 17:28N 28°28' W 016°15'0 0.0
2018-Jan-19 16:58N 28°28' W 016°15'0 0.0
2018-Jan-19 16:28N 28°28' W 016°15'0 0.0
2018-Jan-19 15:58N 28°28' W 016°15'0 0.0
2018-Jan-19 15:28N 28°28' W 016°15'0 0.0
2018-Jan-19 14:58N 28°28' W 016°15'0 0.0
2018-Jan-19 14:28N 28°28' W 016°15'0 0.0
2018-Jan-19 13:58N 28°28' W 016°15'0 0.0
2018-Jan-19 13:28N 28°28' W 016°15'0 0.0
2018-Jan-19 12:58N 28°28' W 016°15'0 0.0
2018-Jan-19 12:28N 28°28' W 016°15'0 0.0
2018-Jan-19 11:58N 28°28' W 016°15'0 0.0
2018-Jan-19 11:22N 28°28' W 016°15'0 0.0
2018-Jan-19 10:58N 28°28' W 016°15'0 0.0
2018-Jan-19 10:28N 28°28' W 016°15'0 0.0
2018-Jan-19 09:58N 28°28' W 016°15'0 0.0
2018-Jan-19 09:28N 28°28' W 016°15'0 0.0
2018-Jan-19 08:58N 28°28' W 016°15'0 0.0
2018-Jan-19 08:28N 28°28' W 016°15'0 0.0
2018-Jan-19 07:58N 28°28' W 016°15'0 0.0
2018-Jan-19 07:28N 28°28' W 016°15'0 0.0
2018-Jan-19 06:58N 28°28' W 016°15'0 0.0
2018-Jan-19 06:28N 28°28' W 016°15'0 0.0
2018-Jan-19 05:58N 28°28' W 016°15'0 0.0
2018-Jan-19 05:28N 28°28' W 016°15'0 0.0
2018-Jan-19 04:58N 28°28' W 016°15'0 0.0
2018-Jan-19 04:28N 28°28' W 016°15'1 1.6
2018-Jan-19 04:01N 28°29' W 016°14'611.7
2018-Jan-19 03:30N 28°27' W 016°08'713.9
2018-Jan-19 03:00N 28°24' W 016°01'713.9
2018-Jan-19 02:29N 28°21' W 015°53'714.8
2018-Jan-19 02:00N 28°19' W 015°45'917.8
2018-Jan-19 01:30N 28°16' W 015°36'917.4
2018-Jan-19 01:00N 28°14' W 015°26'713.8
2018-Jan-19 00:30N 28°08' W 015°22'3 5.4
2018-Jan-19 00:00N 28°08' W 015°25'0 0.3
2018-Jan-18 23:30N 28°08' W 015°25'2 4.3
2018-Jan-18 23:00N 28°07' W 015°23'2 4.2
2018-Jan-18 22:30N 28°09' W 015°22'3 5.5
2018-Jan-18 21:58N 28°08' W 015°25'0 0.0
2018-Jan-18 21:30N 28°08' W 015°25'0 0.0
2018-Jan-18 20:51N 28°08' W 015°25'0 0.0
2018-Jan-18 20:30N 28°08' W 015°25'0 0.0
2018-Jan-18 20:00N 28°08' W 015°25'0 0.0
2018-Jan-18 19:21N 28°08' W 015°25'0 0.0
2018-Jan-18 18:51N 28°08' W 015°25'0 0.0
2018-Jan-18 18:21N 28°08' W 015°25'0 0.0
2018-Jan-18 17:54N 28°08' W 015°25'0 0.0
2018-Jan-18 17:24N 28°08' W 015°25'0 0.0
2018-Jan-18 16:54N 28°08' W 015°25'0 0.0
2018-Jan-18 16:21N 28°08' W 015°25'0 0.0
2018-Jan-18 15:54N 28°08' W 015°25'0 0.0
2018-Jan-18 15:27N 28°08' W 015°25'0 0.0
2018-Jan-18 14:57N 28°08' W 015°25'0 0.0
2018-Jan-18 14:27N 28°08' W 015°25'0 0.0
2018-Jan-18 13:57N 28°08' W 015°25'0 0.0
2018-Jan-18 13:27N 28°08' W 015°25'0 0.0
2018-Jan-18 12:57N 28°08' W 015°25'0 0.0
2018-Jan-18 12:30N 28°08' W 015°25'0 0.0
2018-Jan-18 12:00N 28°08' W 015°25'0 0.0
2018-Jan-18 11:30N 28°08' W 015°25'0 0.0
2018-Jan-18 11:00N 28°08' W 015°25'0 0.0
2018-Jan-18 10:30N 28°08' W 015°25'0 0.0
2018-Jan-18 09:57N 28°08' W 015°25'0 0.0
2018-Jan-18 09:30N 28°08' W 015°25'0 0.0
2018-Jan-18 09:00N 28°08' W 015°25'0 0.0
2018-Jan-18 08:30N 28°08' W 015°25'0 0.0
2018-Jan-18 08:00N 28°08' W 015°25'0 0.8
2018-Jan-18 07:30N 28°08' W 015°25'2 4.5
2018-Jan-18 07:00N 28°07' W 015°23'611.1
2018-Jan-18 06:27N 28°07' W 015°16'613.0
2018-Jan-18 06:00N 28°07' W 015°09'714.7
2018-Jan-18 05:30N 28°07' W 015°01'714.4
2018-Jan-18 05:00N 28°06' W 014°53'510.7
2018-Jan-18 04:30N 28°03' W 014°47'4 7.9
2018-Jan-18 04:00N 28°02' W 014°43'4 7.7
2018-Jan-18 03:30N 28°00' W 014°39'4 7.9
2018-Jan-18 03:00N 27°59' W 014°35'4 8.5
2018-Jan-18 02:30N 27°58' W 014°30'  
Track history (hours):
 
Tides and Currents Weather Stations Pressure Air Temp Water Temp Dewpoint Dewpoint Depression Visibility Wind Speed Wind Dir Waves Ship Positions

Aida Blu

Last reported at 2018-Jan-20 00:03 UTC. Time now 2018-Jan-20 11:12 UTC.
Position N 28°34' W 016°05'.

Length 252 m; draft 7.3 m.

Type: Passenger vessel. MMSI: 247282500.

Date/timePositionNaut miles runAvg speedWind from/ knotsBaromVisibWave heightAir tempDewpointWater temp
2018-Jan-20 00:03N 28°34' W 016°05'113.7
2018-Jan-20 00:01N 28°34' W 016°05'612.3
2018-Jan-19 23:30N 28°29' W 016°09'5 9.1
2018-Jan-19 23:00N 28°28' W 016°15'0 0.2
2018-Jan-19 22:28N 28°28' W 016°15'0 0.0
2018-Jan-19 21:58N 28°28' W 016°15'0 0.0
2018-Jan-19 21:28N 28°28' W 016°15'0 0.0
2018-Jan-19 20:58N 28°28' W 016°15'0 0.0
2018-Jan-19 20:28N 28°28' W 016°15'0 0.0
2018-Jan-19 19:58N 28°28' W 016°15'0 0.0
2018-Jan-19 19:28N 28°28' W 016°15'0 0.0
2018-Jan-19 18:58N 28°28' W 016°15'0 0.0
2018-Jan-19 18:28N 28°28' W 016°15'0 0.0
2018-Jan-19 17:58N 28°28' W 016°15'0 0.0
2018-Jan-19 17:28N 28°28' W 016°15'0 0.0
2018-Jan-19 16:58N 28°28' W 016°15'0 0.0
2018-Jan-19 16:28N 28°28' W 016°15'0 0.0
2018-Jan-19 15:58N 28°28' W 016°15'0 0.0
2018-Jan-19 15:28N 28°28' W 016°15'0 0.0
2018-Jan-19 14:58N 28°28' W 016°15'0 0.0
2018-Jan-19 14:28N 28°28' W 016°15'0 0.0
2018-Jan-19 13:58N 28°28' W 016°15'0 0.0
2018-Jan-19 13:28N 28°28' W 016°15'0 0.0
2018-Jan-19 12:58N 28°28' W 016°15'0 0.0
2018-Jan-19 12:28N 28°28' W 016°15'0 0.0
2018-Jan-19 11:58N 28°28' W 016°15'0 0.0
2018-Jan-19 11:22N 28°28' W 016°15'0 0.0
2018-Jan-19 10:58N 28°28' W 016°15'0 0.0
2018-Jan-19 10:28N 28°28' W 016°15'0 0.0
2018-Jan-19 09:58N 28°28' W 016°15'0 0.0
2018-Jan-19 09:28N 28°28' W 016°15'0 0.0
2018-Jan-19 08:58N 28°28' W 016°15'0 0.0
2018-Jan-19 08:28N 28°28' W 016°15'0 0.0
2018-Jan-19 07:58N 28°28' W 016°15'0 0.0
2018-Jan-19 07:28N 28°28' W 016°15'0 0.0
2018-Jan-19 06:58N 28°28' W 016°15'0 0.0
2018-Jan-19 06:28N 28°28' W 016°15'0 0.0
2018-Jan-19 05:58N 28°28' W 016°15'0 0.0
2018-Jan-19 05:28N 28°28' W 016°15'0 0.0
2018-Jan-19 04:58N 28°28' W 016°15'0 0.0
2018-Jan-19 04:28N 28°28' W 016°15'1 1.6
2018-Jan-19 04:01N 28°29' W 016°14'611.7
2018-Jan-19 03:30N 28°27' W 016°08'713.9
2018-Jan-19 03:00N 28°24' W 016°01'713.9
2018-Jan-19 02:29N 28°21' W 015°53'714.8
2018-Jan-19 02:00N 28°19' W 015°45'917.8
2018-Jan-19 01:30N 28°16' W 015°36'917.4
2018-Jan-19 01:00N 28°14' W 015°26'713.8
2018-Jan-19 00:30N 28°08' W 015°22'3 5.4
2018-Jan-19 00:00N 28°08' W 015°25'0 0.3
2018-Jan-18 23:30N 28°08' W 015°25'2 4.3
2018-Jan-18 23:00N 28°07' W 015°23'2 4.2
2018-Jan-18 22:30N 28°09' W 015°22'3 5.5
2018-Jan-18 21:58N 28°08' W 015°25'0 0.0
2018-Jan-18 21:30N 28°08' W 015°25'0 0.0
2018-Jan-18 20:51N 28°08' W 015°25'0 0.0
2018-Jan-18 20:30N 28°08' W 015°25'0 0.0
2018-Jan-18 20:00N 28°08' W 015°25'0 0.0
2018-Jan-18 19:21N 28°08' W 015°25'0 0.0
2018-Jan-18 18:51N 28°08' W 015°25'0 0.0
2018-Jan-18 18:21N 28°08' W 015°25'0 0.0
2018-Jan-18 17:54N 28°08' W 015°25'0 0.0
2018-Jan-18 17:24N 28°08' W 015°25'0 0.0
2018-Jan-18 16:54N 28°08' W 015°25'0 0.0
2018-Jan-18 16:21N 28°08' W 015°25'0 0.0
2018-Jan-18 15:54N 28°08' W 015°25'0 0.0
2018-Jan-18 15:27N 28°08' W 015°25'0 0.0
2018-Jan-18 14:57N 28°08' W 015°25'0 0.0
2018-Jan-18 14:27N 28°08' W 015°25'0 0.0
2018-Jan-18 13:57N 28°08' W 015°25'0 0.0
2018-Jan-18 13:27N 28°08' W 015°25'0 0.0
2018-Jan-18 12:57N 28°08' W 015°25'0 0.0
2018-Jan-18 12:30N 28°08' W 015°25'0 0.0
2018-Jan-18 12:00N 28°08' W 015°25'0 0.0
2018-Jan-18 11:30N 28°08' W 015°25'0 0.0
2018-Jan-18 11:00N 28°08' W 015°25'0 0.0
2018-Jan-18 10:30N 28°08' W 015°25'0 0.0
2018-Jan-18 09:57N 28°08' W 015°25'0 0.0
2018-Jan-18 09:30N 28°08' W 015°25'0 0.0
2018-Jan-18 09:00N 28°08' W 015°25'0 0.0
2018-Jan-18 08:30N 28°08' W 015°25'0 0.0
2018-Jan-18 08:00N 28°08' W 015°25'0 0.8
2018-Jan-18 07:30N 28°08' W 015°25'2 4.5
2018-Jan-18 07:00N 28°07' W 015°23'611.1
2018-Jan-18 06:27N 28°07' W 015°16'613.0
2018-Jan-18 06:00N 28°07' W 015°09'714.7
2018-Jan-18 05:30N 28°07' W 015°01'714.4
2018-Jan-18 05:00N 28°06' W 014°53'510.7
2018-Jan-18 04:30N 28°03' W 014°47'4 7.9
2018-Jan-18 04:00N 28°02' W 014°43'4 7.7
2018-Jan-18 03:30N 28°00' W 014°39'4 7.9
2018-Jan-18 03:00N 27°59' W 014°35'4 8.5
2018-Jan-18 02:30N 27°58' W 014°30'  

Dump ship's entire track history